Time;durP1;ratioP1;P1;durP2;ratioP2;P2;SDS_P1;SDS_P2;PMS_P1;PMS_P2;Temp;Humidity;BMP_temperature;BMP_pressure;BME280_temperature;BME280_humidity;BME280_pressure;Samples;Min_cycle;Max_cycle;Signal;HPM_P1;HPM_P2
2023/08/14 00:00:31;;;;;;;6.72;3.42;;;;;;;;;;4411085;32;66226;-58
2023/08/14 00:03:18;;;;;;;6.00;3.50;;;;;;;;;;4410910;32;66402;-58
2023/08/14 00:06:04;;;;;;;5.78;4.03;;;;;;;;;;4409904;32;60141;-58
2023/08/14 00:08:52;;;;;;;5.50;3.70;;;;;;;;;;4410700;32;72008;-58
2023/08/14 00:11:38;;;;;;;5.43;4.22;;;;;;;;;;4410845;32;65903;-58
2023/08/14 00:14:25;;;;;;;5.35;3.78;;;;;;;;;;4410984;32;67451;-58
2023/08/14 00:17:11;;;;;;;6.15;3.95;;;;;;;;;;4398892;32;60067;-58
2023/08/14 00:19:58;;;;;;;7.97;3.60;;;;;;;;;;4408749;32;70343;-58
2023/08/14 00:22:44;;;;;;;5.80;4.15;;;;;;;;;;4410535;32;69183;-57
2023/08/14 00:25:31;;;;;;;7.37;4.07;;;;;;;;;;4409307;32;67999;-58
2023/08/14 00:28:18;;;;;;;6.50;4.00;;;;;;;;;;4409194;32;71617;-58
2023/08/14 00:31:04;;;;;;;4.87;3.78;;;;;;;;;;4409471;32;64945;-58
2023/08/14 00:33:52;;;;;;;7.50;4.03;;;;;;;;;;4410610;32;69247;-57
2023/08/14 00:36:38;;;;;;;4.95;3.60;;;;;;;;;;4410486;32;66693;-57
2023/08/14 00:39:25;;;;;;;5.05;3.95;;;;;;;;;;4397655;32;71856;-58
2023/08/14 00:42:11;;;;;;;5.55;3.60;;;;;;;;;;4408275;32;67279;-57
2023/08/14 00:44:58;;;;;;;5.47;3.62;;;;;;;;;;4410338;32;67448;-58
2023/08/14 00:47:46;;;;;;;6.93;3.90;;;;;;;;;;4410735;32;60355;-59
2023/08/14 00:50:33;;;;;;;7.47;4.10;;;;;;;;;;4411052;32;70209;-59
2023/08/14 00:53:20;;;;;;;6.25;4.20;;;;;;;;;;4385248;32;69374;-57
2023/08/14 00:56:06;;;;;;;5.37;3.78;;;;;;;;;;4400176;32;67778;-58
2023/08/14 00:58:53;;;;;;;5.45;3.92;;;;;;;;;;4399119;32;58890;-58
2023/08/14 01:01:39;;;;;;;7.32;3.75;;;;;;;;;;4399874;32;69349;-58
2023/08/14 01:04:26;;;;;;;7.18;4.05;;;;;;;;;;4398075;32;69070;-58
2023/08/14 01:07:12;;;;;;;5.55;4.20;;;;;;;;;;4398601;32;66576;-58
2023/08/14 01:10:01;;;;;;;8.05;4.57;;;;;;;;;;4397883;32;72892;-58
2023/08/14 01:12:55;;;;;;;5.78;4.03;;;;;;;;;;4398835;32;65198;-57
2023/08/14 01:15:49;;;;;;;7.50;4.10;;;;;;;;;;4399879;32;67302;-58
2023/08/14 01:18:38;;;;;;;6.28;4.18;;;;;;;;;;4389327;32;60091;-62
2023/08/14 01:21:43;;;;;;;5.05;3.50;;;;;;;;;;4398757;32;69755;-59
2023/08/14 01:24:47;;;;;;;5.15;3.95;;;;;;;;;;4404520;32;65559;-57
2023/08/14 01:27:34;;;;;;;8.35;4.35;;;;;;;;;;4404781;32;66715;-59
2023/08/14 01:30:22;;;;;;;;;;;;;;;;;;4400467;32;60372;-58
2023/08/14 01:33:08;;;;;;;5.05;4.00;;;;;;;;;;4402275;32;69324;-58
2023/08/14 01:36:09;;;;;;;6.15;4.03;;;;;;;;;;4400625;32;68608;-58
2023/08/14 01:39:15;;;;;;;7.90;4.85;;;;;;;;;;4399456;32;67649;-58
2023/08/14 01:42:25;;;;;;;9.45;5.18;;;;;;;;;;4402248;32;71523;-58
2023/08/14 01:45:16;;;;;;;7.22;4.40;;;;;;;;;;4388357;32;67922;-58
2023/08/14 01:48:05;;;;;;;6.37;4.25;;;;;;;;;;4399899;32;66568;-58
2023/08/14 01:50:53;;;;;;;8.35;5.20;;;;;;;;;;4399140;32;67559;-57
2023/08/14 01:53:41;;;;;;;11.88;5.10;;;;;;;;;;4387180;32;71632;-58
2023/08/14 01:56:27;;;;;;;7.87;4.43;;;;;;;;;;4399478;32;65431;-58
2023/08/14 01:59:14;;;;;;;7.10;4.00;;;;;;;;;;4397336;32;68781;-58
2023/08/14 02:02:00;;;;;;;7.50;4.20;;;;;;;;;;4399475;32;58900;-58
2023/08/14 02:04:50;;;;;;;6.28;4.60;;;;;;;;;;4386844;32;70549;-58
2023/08/14 02:07:37;;;;;;;7.50;4.43;;;;;;;;;;4397870;32;69228;-58
2023/08/14 02:10:24;;;;;;;6.00;4.10;;;;;;;;;;4399029;32;67954;-58
2023/08/14 02:13:12;;;;;;;6.55;4.25;;;;;;;;;;4399569;32;59042;-58
2023/08/14 02:15:59;;;;;;;5.95;3.75;;;;;;;;;;4386046;32;70645;-58
2023/08/14 02:18:46;;;;;;;5.70;3.42;;;;;;;;;;4398933;32;68582;-58
2023/08/14 02:21:33;;;;;;;6.47;3.58;;;;;;;;;;4398960;32;66816;-58
2023/08/14 02:24:19;;;;;;;5.40;3.53;;;;;;;;;;4397423;32;71604;-58
2023/08/14 02:27:06;;;;;;;4.43;3.28;;;;;;;;;;4398963;32;65052;-58
2023/08/14 02:29:53;;;;;;;5.80;3.47;;;;;;;;;;4399087;32;67336;-58
2023/08/14 02:32:40;;;;;;;5.15;3.45;;;;;;;;;;4399221;32;59216;-58
2023/08/14 02:35:26;;;;;;;;;;;;;;;;;;4402340;32;70423;-57
2023/08/14 02:38:15;;;;;;;5.12;3.22;;;;;;;;;;4397924;32;65650;-58
2023/08/14 02:41:03;;;;;;;6.45;4.03;;;;;;;;;;4398787;32;67770;-58
2023/08/14 02:43:50;;;;;;;6.40;3.25;;;;;;;;;;4398885;32;60229;-59
2023/08/14 02:46:36;;;;;;;;;;;;;;;;;;4399114;32;70493;-58
2023/08/14 02:49:23;;;;;;;5.50;3.30;;;;;;;;;;4386257;32;69993;-59
2023/08/14 02:52:09;;;;;;;5.60;3.17;;;;;;;;;;4398652;32;66719;-57
2023/08/14 02:54:56;;;;;;;10.82;4.05;;;;;;;;;;4396699;32;72235;-58
2023/08/14 02:57:43;;;;;;;6.87;3.10;;;;;;;;;;4398641;32;64746;-58
2023/08/14 03:00:30;;;;;;;6.75;3.70;;;;;;;;;;4396910;32;67111;-58
2023/08/14 03:03:16;;;;;;;6.93;3.60;;;;;;;;;;4397140;32;67819;-58
2023/08/14 03:06:02;;;;;;;6.62;3.35;;;;;;;;;;4398392;32;71893;-58
2023/08/14 03:08:50;;;;;;;5.60;3.60;;;;;;;;;;4398468;32;65192;-58
2023/08/14 03:11:36;;;;;;;7.10;3.78;;;;;;;;;;4399211;32;67023;-58
2023/08/14 03:14:22;;;;;;;7.32;3.70;;;;;;;;;;4397466;32;59974;-58
2023/08/14 03:17:09;;;;;;;6.82;3.70;;;;;;;;;;4398147;32;69600;-58
2023/08/14 03:19:55;;;;;;;;;;;;;;;;;;4397328;32;69416;-58
2023/08/14 03:22:42;;;;;;;8.88;4.05;;;;;;;;;;4398435;32;67277;-58
2023/08/14 03:25:28;;;;;;;;;;;;;;;;;;4397081;32;72001;-58
2023/08/14 03:28:16;;;;;;;8.07;4.78;;;;;;;;;;4376154;32;69980;-59
2023/08/14 03:31:02;;;;;;;6.40;4.37;;;;;;;;;;4386363;32;68369;-57
2023/08/14 03:33:49;;;;;;;8.07;4.55;;;;;;;;;;4398192;32;67980;-58
2023/08/14 03:36:36;;;;;;;7.10;4.22;;;;;;;;;;4397962;32;70711;-58
2023/08/14 03:39:23;;;;;;;7.07;4.90;;;;;;;;;;4396914;32;66321;-58
2023/08/14 03:42:09;;;;;;;8.32;4.80;;;;;;;;;;4396529;32;67345;-58
2023/08/14 03:44:56;;;;;;;6.00;4.12;;;;;;;;;;4397199;32;59140;-58
2023/08/14 03:47:42;;;;;;;7.40;4.85;;;;;;;;;;4396816;32;69279;-58
2023/08/14 03:50:29;;;;;;;7.95;4.60;;;;;;;;;;4397889;32;69364;-58
2023/08/14 03:53:15;;;;;;;6.87;4.62;;;;;;;;;;4396267;32;67024;-58
2023/08/14 03:56:02;;;;;;;7.60;4.78;;;;;;;;;;4398225;32;60664;-58
2023/08/14 03:58:48;;;;;;;;;;;;;;;;;;4385569;32;71570;-58
2023/08/14 04:01:37;;;;;;;6.70;4.70;;;;;;;;;;4398246;32;69264;-58
2023/08/14 04:04:24;;;;;;;8.27;5.15;;;;;;;;;;4397891;32;67285;-57
2023/08/14 04:07:10;;;;;;;;;;;;;;;;;;4396290;32;72141;-58
2023/08/14 04:09:57;;;;;;;7.40;4.70;;;;;;;;;;4396320;32;67517;-58
2023/08/14 04:12:44;;;;;;;5.87;4.07;;;;;;;;;;4395939;32;67342;-58
2023/08/14 04:15:31;;;;;;;6.68;4.62;;;;;;;;;;4397979;32;59983;-59
2023/08/14 04:18:18;;;;;;;7.45;4.18;;;;;;;;;;4397642;32;71796;-58
2023/08/14 04:21:05;;;;;;;6.62;4.43;;;;;;;;;;4397768;32;66257;-58
2023/08/14 04:23:51;;;;;;;6.25;4.05;;;;;;;;;;4396324;32;67967;-59
2023/08/14 04:26:38;;;;;;;5.72;3.97;;;;;;;;;;4385899;32;60064;-57
2023/08/14 04:29:25;;;;;;;6.15;4.00;;;;;;;;;;4397015;32;70420;-59
2023/08/14 04:32:12;;;;;;;5.70;4.00;;;;;;;;;;4388276;32;69333;-58
2023/08/14 04:34:58;;;;;;;4.35;3.17;;;;;;;;;;4398901;32;66720;-58
2023/08/14 04:37:46;;;;;;;5.50;3.08;;;;;;;;;;4400655;32;72024;-58
2023/08/14 04:40:32;;;;;;;7.47;3.53;;;;;;;;;;4400033;32;70519;-58
2023/08/14 04:43:19;;;;;;;6.07;2.95;;;;;;;;;;4399593;32;68296;-58
2023/08/14 04:46:13;;;;;;;7.05;3.80;;;;;;;;;;4398294;32;68335;-59
2023/08/14 04:49:00;;;;;;;5.43;3.75;;;;;;;;;;4399880;32;70683;-58
2023/08/14 04:51:47;;;;;;;5.30;3.12;;;;;;;;;;4398711;32;66335;-58
2023/08/14 04:54:34;;;;;;;4.50;3.03;;;;;;;;;;4399989;32;67510;-58
2023/08/14 04:57:21;;;;;;;4.93;3.35;;;;;;;;;;4398793;32;60300;-58
2023/08/14 05:00:08;;;;;;;5.20;3.10;;;;;;;;;;4399907;32;69468;-58
2023/08/14 05:02:55;;;;;;;4.82;3.00;;;;;;;;;;4399821;32;69362;-58
2023/08/14 05:05:42;;;;;;;4.45;2.90;;;;;;;;;;4399847;32;68305;-58
2023/08/14 05:08:30;;;;;;;5.53;3.33;;;;;;;;;;4400160;32;59335;-58
2023/08/14 05:11:17;;;;;;;5.90;3.20;;;;;;;;;;4398425;32;70649;-58
2023/08/14 05:14:04;;;;;;;4.85;3.17;;;;;;;;;;4398280;32;68742;-59
2023/08/14 05:16:51;;;;;;;6.20;3.15;;;;;;;;;;4399879;32;67645;-58
2023/08/14 05:19:37;;;;;;;;;;;;;;;;;;4387467;32;71250;-57
2023/08/14 05:22:24;;;;;;;7.60;3.08;;;;;;;;;;4399881;32;65848;-58
2023/08/14 05:25:10;;;;;;;;;;;;;;;;;;4398135;32;68253;-58
2023/08/14 05:27:57;;;;;;;4.78;3.35;;;;;;;;;;4399999;32;59965;-58
2023/08/14 05:30:45;;;;;;;6.75;3.70;;;;;;;;;;4398850;32;71925;-58
2023/08/14 05:33:31;;;;;;;8.18;3.80;;;;;;;;;;4398243;32;65670;-58
2023/08/14 05:36:17;;;;;;;4.60;3.28;;;;;;;;;;4399322;32;67933;-57
2023/08/14 05:39:05;;;;;;;5.12;3.37;;;;;;;;;;4398211;32;59217;-58
2023/08/14 05:41:52;;;;;;;4.65;3.35;;;;;;;;;;4396932;32;71377;-58
2023/08/14 05:44:38;;;;;;;5.65;3.65;;;;;;;;;;4397746;32;68331;-58
2023/08/14 05:47:25;;;;;;;5.07;3.35;;;;;;;;;;4397808;32;66863;-58
2023/08/14 05:50:11;;;;;;;5.18;3.40;;;;;;;;;;4397595;32;71212;-58
2023/08/14 05:53:04;;;;;;;5.15;3.20;;;;;;;;;;4399326;32;64875;-57
2023/08/14 05:55:52;;;;;;;12.77;3.87;;;;;;;;;;4397831;32;69462;-58
2023/08/14 05:58:38;;;;;;;4.10;3.20;;;;;;;;;;4397262;32;68528;-58
2023/08/14 06:01:26;;;;;;;5.80;3.55;;;;;;;;;;4398902;32;70709;-58
2023/08/14 06:04:13;;;;;;;8.20;3.97;;;;;;;;;;4397598;32;65774;-58
2023/08/14 06:06:59;;;;;;;4.10;3.25;;;;;;;;;;4398942;32;67880;-58
2023/08/14 06:09:46;;;;;;;5.45;3.60;;;;;;;;;;4399313;32;60433;-58
2023/08/14 06:12:32;;;;;;;;;;;;;;;;;;4399204;32;70111;-58
2023/08/14 06:15:20;;;;;;;6.57;3.50;;;;;;;;;;4397779;32;68541;-58
2023/08/14 06:18:06;;;;;;;7.03;3.42;;;;;;;;;;4397083;32;69467;-58
2023/08/14 06:20:53;;;;;;;5.00;3.25;;;;;;;;;;4398912;32;59983;-57
2023/08/14 06:23:39;;;;;;;7.30;3.22;;;;;;;;;;4398614;32;70361;-57
2023/08/14 06:26:26;;;;;;;13.30;7.60;;;;;;;;;;4396888;32;69852;-58
2023/08/14 06:29:13;;;;;;;4.47;3.15;;;;;;;;;;4398686;32;68181;-58
2023/08/14 06:32:00;;;;;;;5.28;3.10;;;;;;;;;;4398512;32;71841;-57
2023/08/14 06:34:47;;;;;;;5.32;3.12;;;;;;;;;;4398469;32;66127;-58
2023/08/14 06:37:34;;;;;;;6.37;3.60;;;;;;;;;;4398508;32;66893;-57
2023/08/14 06:40:20;;;;;;;;;;;;;;;;;;4399284;32;59363;-58
2023/08/14 06:43:06;;;;;;;5.22;3.28;;;;;;;;;;4398346;32;69067;-58
2023/08/14 06:45:52;;;;;;;;;;;;;;;;;;4398916;32;66037;-58
2023/08/14 06:48:39;;;;;;;7.07;3.20;;;;;;;;;;4385707;32;68896;-57
2023/08/14 06:51:25;;;;;;;7.70;3.33;;;;;;;;;;4397984;32;59102;-58
2023/08/14 06:54:12;;;;;;;7.97;3.62;;;;;;;;;;4398240;32;69388;-59
2023/08/14 06:57:01;;;;;;;6.30;3.12;;;;;;;;;;4397118;32;69154;-58
2023/08/14 06:59:48;;;;;;;4.93;3.35;;;;;;;;;;4396548;32;68801;-58
2023/08/14 07:02:34;;;;;;;6.20;3.28;;;;;;;;;;4397964;32;71559;-58
2023/08/14 07:05:20;;;;;;;4.28;2.78;;;;;;;;;;4398425;32;65407;-56
2023/08/14 07:08:07;;;;;;;6.10;2.97;;;;;;;;;;4396903;32;69313;-58
2023/08/14 07:10:54;;;;;;;4.87;3.17;;;;;;;;;;4398262;32;67445;-59
2023/08/14 07:13:40;;;;;;;5.62;3.12;;;;;;;;;;4396938;32;71760;-58
2023/08/14 07:16:28;;;;;;;5.97;3.10;;;;;;;;;;4396349;32;66795;-58
2023/08/14 07:19:17;;;;;;;4.72;2.80;;;;;;;;;;4385679;32;68682;-58
2023/08/14 07:22:04;;;;;;;4.62;3.00;;;;;;;;;;4398607;32;59556;-59
2023/08/14 07:24:50;;;;;;;;;;;;;;;;;;4396976;32;69808;-59
2023/08/14 07:27:37;;;;;;;4.23;2.90;;;;;;;;;;4396850;32;69175;-58
2023/08/14 07:30:24;;;;;;;5.55;3.25;;;;;;;;;;4397949;32;68049;-59
2023/08/14 07:33:13;;;;;;;4.85;3.03;;;;;;;;;;4399375;32;59036;-59
2023/08/14 07:36:00;;;;;;;5.72;3.28;;;;;;;;;;4398885;32;70599;-60
2023/08/14 07:38:50;;;;;;;4.82;3.00;;;;;;;;;;4397391;32;69563;-59
2023/08/14 07:41:36;;;;;;;5.62;2.60;;;;;;;;;;4384727;32;68635;-58
2023/08/14 07:44:22;;;;;;;5.47;3.60;;;;;;;;;;4397583;32;72085;-59
2023/08/14 07:47:10;;;;;;;4.20;3.08;;;;;;;;;;4397959;32;65611;-58
2023/08/14 07:49:57;;;;;;;14.57;8.43;;;;;;;;;;4399100;32;68033;-59
2023/08/14 07:52:43;;;;;;;;;;;;;;;;;;4397474;32;60919;-58
2023/08/14 07:55:30;;;;;;;6.17;2.93;;;;;;;;;;4397661;32;69495;-59
2023/08/14 07:58:18;;;;;;;5.90;2.90;;;;;;;;;;4397579;32;66046;-58
2023/08/14 08:01:05;;;;;;;5.25;2.47;;;;;;;;;;4397876;32;67827;-59
2023/08/14 08:03:51;;;;;;;4.25;2.75;;;;;;;;;;4397148;32;59056;-58
2023/08/14 08:06:38;;;;;;;5.80;3.10;;;;;;;;;;4400028;32;70740;-57
2023/08/14 08:09:25;;;;;;;4.00;2.45;;;;;;;;;;4400110;32;69280;-58
2023/08/14 08:12:11;;;;;;;6.97;2.85;;;;;;;;;;4400321;32;68026;-58
2023/08/14 08:14:58;;;;;;;3.87;3.00;;;;;;;;;;4400048;32;71995;-58
2023/08/14 08:17:45;;;;;;;;;;;;;;;;;;4400820;32;64966;-57
2023/08/14 08:20:32;;;;;;;4.97;2.83;;;;;;;;;;4400496;32;67688;-57
2023/08/14 08:23:18;;;;;;;;;;;;;;;;;;4388725;32;66624;-58
2023/08/14 08:26:04;;;;;;;9.40;3.30;;;;;;;;;;4400018;32;70775;-58
2023/08/14 08:28:51;;;;;;;5.15;3.10;;;;;;;;;;4400173;32;65674;-58
2023/08/14 08:31:38;;;;;;;4.45;2.78;;;;;;;;;;4400010;32;68042;-58
2023/08/14 08:34:24;;;;;;;;;;;;;;;;;;4400701;32;59233;-57
2023/08/14 08:37:11;;;;;;;3.85;3.17;;;;;;;;;;4400139;32;69346;-58
2023/08/14 08:39:57;;;;;;;5.50;2.90;;;;;;;;;;4399808;32;69217;-58
2023/08/14 08:42:44;;;;;;;4.20;2.80;;;;;;;;;;4398238;32;66688;-57
2023/08/14 08:45:32;;;;;;;3.67;2.72;;;;;;;;;;4387511;32;72535;-58
2023/08/14 08:48:22;;;;;;;3.53;2.30;;;;;;;;;;4399620;32;70740;-57
2023/08/14 08:51:09;;;;;;;5.75;2.50;;;;;;;;;;4399704;32;69348;-58
2023/08/14 08:53:55;;;;;;;3.17;2.40;;;;;;;;;;4399796;32;67064;-58
2023/08/14 08:56:45;;;;;;;5.30;2.20;;;;;;;;;;4397907;32;71796;-58
2023/08/14 08:59:32;;;;;;;4.18;2.70;;;;;;;;;;4398750;32;65168;-58
2023/08/14 09:02:19;;;;;;;2.95;2.30;;;;;;;;;;4399722;32;68202;-57
2023/08/14 09:05:06;;;;;;;3.22;2.17;;;;;;;;;;4399819;32;59436;-58
2023/08/14 09:07:53;;;;;;;5.47;2.70;;;;;;;;;;4399474;32;70521;-58
2023/08/14 09:10:40;;;;;;;4.12;2.65;;;;;;;;;;4397744;32;69850;-58
2023/08/14 09:13:26;;;;;;;4.03;2.78;;;;;;;;;;4399630;32;67716;-58
2023/08/14 09:16:16;;;;;;;3.67;2.53;;;;;;;;;;4399522;32;60044;-58
2023/08/14 09:19:03;;;;;;;5.15;2.60;;;;;;;;;;4387428;32;69579;-58
2023/08/14 09:21:50;;;;;;;4.85;2.70;;;;;;;;;;4387459;32;68647;-58
2023/08/14 09:24:36;;;;;;;4.15;2.95;;;;;;;;;;4399542;32;67537;-58
2023/08/14 09:27:24;;;;;;;5.57;2.60;;;;;;;;;;4399315;32;71781;-57
2023/08/14 09:30:13;;;;;;;6.18;2.83;;;;;;;;;;4399205;32;66045;-58
2023/08/14 09:33:00;;;;;;;5.32;2.95;;;;;;;;;;4399701;32;67960;-58
2023/08/14 09:35:54;;;;;;;2.67;2.37;;;;;;;;;;4398069;32;66764;-58
2023/08/14 09:38:41;;;;;;;4.80;2.65;;;;;;;;;;4397204;32;72172;-58
2023/08/14 09:41:28;;;;;;;4.62;2.58;;;;;;;;;;4398839;32;65840;-58
2023/08/14 09:44:19;;;;;;;3.25;2.30;;;;;;;;;;4397729;32;67913;-57
2023/08/14 09:47:06;;;;;;;4.10;2.62;;;;;;;;;;4398022;32;60182;-59
2023/08/14 09:49:56;;;;;;;5.43;2.47;;;;;;;;;;4398878;32;69817;-58
2023/08/14 09:52:45;;;;;;;5.10;2.87;;;;;;;;;;4398925;32;69363;-57
2023/08/14 09:55:34;;;;;;;4.18;2.55;;;;;;;;;;4398951;32;66651;-58
2023/08/14 09:58:20;;;;;;;4.50;2.60;;;;;;;;;;4398217;32;71922;-58
2023/08/14 10:01:08;;;;;;;4.07;2.67;;;;;;;;;;4397650;32;69488;-57
2023/08/14 10:05:44;;;;;;;3.28;2.60;;;;;;;;;;3847169;37;43953;-58
2023/08/14 10:08:34;;;;;;;5.43;2.70;;;;;;;;;;4399396;32;60333;-58
2023/08/14 10:11:21;;;;;;;4.47;2.55;;;;;;;;;;4410672;32;69632;-58
2023/08/14 10:14:09;;;;;;;4.70;2.67;;;;;;;;;;4410762;32;68300;-58
2023/08/14 10:16:56;;;;;;;4.90;2.50;;;;;;;;;;4410723;32;67634;-58
2023/08/14 10:19:43;;;;;;;4.22;2.65;;;;;;;;;;4410596;32;70512;-58
2023/08/14 10:22:31;;;;;;;5.12;2.67;;;;;;;;;;4409292;32;66201;-58
2023/08/14 10:25:18;;;;;;;4.03;2.58;;;;;;;;;;4409458;32;67349;-58
2023/08/14 10:28:07;;;;;;;4.65;2.30;;;;;;;;;;4409668;32;59361;-58
2023/08/14 10:30:54;;;;;;;7.55;3.08;;;;;;;;;;4410444;32;71949;-58
2023/08/14 10:33:41;;;;;;;4.05;2.78;;;;;;;;;;4409605;32;64921;-58
2023/08/14 10:36:29;;;;;;;4.40;2.47;;;;;;;;;;4410686;32;66753;-58
2023/08/14 10:39:16;;;;;;;3.85;2.70;;;;;;;;;;4410765;32;60119;-57
2023/08/14 10:42:06;;;;;;;4.07;2.42;;;;;;;;;;4410635;32;70202;-57
2023/08/14 10:44:53;;;;;;;5.15;2.80;;;;;;;;;;4410434;32;68481;-58
2023/08/14 10:47:39;;;;;;;3.12;2.25;;;;;;;;;;4409094;32;67898;-58
2023/08/14 10:50:28;;;;;;;4.82;2.85;;;;;;;;;;4409261;32;71659;-58
2023/08/14 10:53:15;;;;;;;5.43;2.67;;;;;;;;;;4409534;32;65885;-57
2023/08/14 10:56:01;;;;;;;4.55;2.55;;;;;;;;;;4410577;32;69214;-58
2023/08/14 10:58:53;;;;;;;5.22;2.50;;;;;;;;;;4409169;32;67150;-57
2023/08/14 11:01:39;;;;;;;4.82;2.58;;;;;;;;;;4410143;32;71614;-57
2023/08/14 11:04:27;;;;;;;6.43;2.67;;;;;;;;;;4409943;32;65898;-58
2023/08/14 11:07:13;;;;;;;5.70;2.90;;;;;;;;;;4409192;32;66685;-58
2023/08/14 11:10:02;;;;;;;5.78;2.92;;;;;;;;;;4387898;32;60139;-57
2023/08/14 11:12:52;;;;;;;9.10;2.83;;;;;;;;;;4398704;32;70430;-58
2023/08/14 11:15:40;;;;;;;3.70;2.40;;;;;;;;;;4405952;32;69193;-57
2023/08/14 11:18:28;;;;;;;3.95;2.87;;;;;;;;;;4398620;32;67331;-59
2023/08/14 11:21:15;;;;;;;4.72;3.03;;;;;;;;;;4400292;32;59168;-58
2023/08/14 11:24:08;;;;;;;;;;;;;;;;;;4400166;32;70504;-58
2023/08/14 11:26:58;;;;;;;3.30;2.58;;;;;;;;;;4399811;32;69243;-58
2023/08/14 11:29:51;;;;;;;3.28;2.62;;;;;;;;;;4399975;32;67413;-58
2023/08/14 11:32:39;;;;;;;3.60;2.50;;;;;;;;;;4399738;32;70859;-58
2023/08/14 11:35:31;;;;;;;5.57;2.72;;;;;;;;;;4399766;32;65927;-58
2023/08/14 11:38:19;;;;;;;3.75;2.80;;;;;;;;;;4398508;32;67115;-57
2023/08/14 11:41:06;;;;;;;6.35;3.85;;;;;;;;;;4387915;32;59917;-57
2023/08/14 11:43:52;;;;;;;6.28;2.95;;;;;;;;;;4397561;32;71248;-57
2023/08/14 11:46:39;;;;;;;5.40;3.17;;;;;;;;;;4399781;32;65996;-58
2023/08/14 11:49:27;;;;;;;5.28;2.90;;;;;;;;;;4399616;32;66510;-58
2023/08/14 11:52:13;;;;;;;4.55;2.58;;;;;;;;;;4398807;32;60210;-58
2023/08/14 11:55:00;;;;;;;3.58;2.65;;;;;;;;;;4398280;32;70535;-57
2023/08/14 11:57:47;;;;;;;3.65;2.60;;;;;;;;;;4398115;32;68441;-58
2023/08/14 12:00:35;;;;;;;4.12;2.65;;;;;;;;;;4399533;32;66895;-58
2023/08/14 12:03:21;;;;;;;3.80;2.50;;;;;;;;;;4398922;32;71193;-59
2023/08/14 12:06:08;;;;;;;3.97;2.35;;;;;;;;;;4399303;32;66404;-57
2023/08/14 12:08:54;;;;;;;4.85;3.05;;;;;;;;;;4397734;32;68293;-57
2023/08/14 12:11:41;;;;;;;4.50;2.78;;;;;;;;;;4387468;32;67530;-58
2023/08/14 12:14:41;;;;;;;7.12;2.80;;;;;;;;;;4386597;32;73088;-58
2023/08/14 12:17:28;;;;;;;5.60;3.25;;;;;;;;;;4386758;32;67293;-58
2023/08/14 12:20:16;;;;;;;6.47;3.30;;;;;;;;;;4398117;32;66691;-58
2023/08/14 12:23:14;;;;;;;3.10;2.80;;;;;;;;;;4399433;32;59091;-59
2023/08/14 12:26:01;;;;;;;7.97;2.50;;;;;;;;;;4399089;32;69701;-57
2023/08/14 12:28:48;;;;;;;3.33;2.47;;;;;;;;;;4398858;32;68459;-57
2023/08/14 12:31:35;;;;;;;4.57;2.60;;;;;;;;;;4398872;32;67881;-58
2023/08/14 12:34:21;;;;;;;5.50;3.00;;;;;;;;;;4399437;32;59899;-58
2023/08/14 12:37:13;;;;;;;4.18;2.85;;;;;;;;;;4398926;32;70030;-58
2023/08/14 12:40:00;;;;;;;3.47;2.53;;;;;;;;;;4386813;32;69578;-58
2023/08/14 12:42:46;;;;;;;5.40;2.60;;;;;;;;;;4398974;32;66805;-58
2023/08/14 12:45:33;;;;;;;4.75;2.40;;;;;;;;;;4397471;32;71624;-57
2023/08/14 12:48:20;;;;;;;5.15;2.65;;;;;;;;;;4398855;32;65806;-58
2023/08/14 12:51:06;;;;;;;3.55;2.55;;;;;;;;;;4397477;32;66563;-58
2023/08/14 12:53:53;;;;;;;5.47;2.33;;;;;;;;;;4399814;32;59256;-57
2023/08/14 12:56:39;;;;;;;;;;;;;;;;;;4398842;32;70520;-58
2023/08/14 12:59:26;;;;;;;3.58;2.55;;;;;;;;;;4399015;32;65871;-57
2023/08/14 13:02:13;;;;;;;6.60;3.05;;;;;;;;;;4398814;32;67956;-58
2023/08/14 13:05:00;;;;;;;6.78;2.85;;;;;;;;;;4398278;32;59320;-57
2023/08/14 13:07:46;;;;;;;6.10;2.75;;;;;;;;;;4398516;32;70520;-58
2023/08/14 13:10:33;;;;;;;3.28;2.42;;;;;;;;;;4398631;32;68052;-58
2023/08/14 13:13:23;;;;;;;4.95;2.58;;;;;;;;;;4396728;32;67123;-57
2023/08/14 13:16:11;;;;;;;4.68;2.60;;;;;;;;;;4397204;32;71673;-58
2023/08/14 13:18:57;;;;;;;3.22;2.47;;;;;;;;;;4398933;32;65129;-58
2023/08/14 13:21:44;;;;;;;4.47;2.60;;;;;;;;;;4397645;32;67757;-58
2023/08/14 13:24:30;;;;;;;3.92;2.90;;;;;;;;;;4397206;32;66693;-58
2023/08/14 13:27:17;;;;;;;5.25;2.97;;;;;;;;;;4398284;32;70642;-59
2023/08/14 13:30:04;;;;;;;5.15;2.67;;;;;;;;;;4396505;32;66376;-57
2023/08/14 13:32:50;;;;;;;3.50;2.45;;;;;;;;;;4398512;32;67251;-58
2023/08/14 13:35:37;;;;;;;6.60;3.12;;;;;;;;;;4398519;32;60239;-58
2023/08/14 13:38:24;;;;;;;3.15;2.50;;;;;;;;;;4374641;32;70837;-58
2023/08/14 13:41:10;;;;;;;4.93;2.78;;;;;;;;;;4397977;32;69333;-57
2023/08/14 13:43:57;;;;;;;6.40;2.80;;;;;;;;;;4398128;32;67463;-58
2023/08/14 13:46:44;;;;;;;4.25;2.50;;;;;;;;;;4398630;32;71342;-57
2023/08/14 13:49:36;;;;;;;6.28;2.70;;;;;;;;;;4396727;32;70775;-58
2023/08/14 13:52:22;;;;;;;;;;;;;;;;;;4375436;32;69686;-58
2023/08/14 13:55:08;;;;;;;9.60;3.00;;;;;;;;;;4398551;32;67626;-59
2023/08/14 13:57:55;;;;;;;3.37;2.67;;;;;;;;;;4396676;32;70536;-59
2023/08/14 14:00:41;;;;;;;6.28;2.95;;;;;;;;;;4396367;32;66640;-58
2023/08/14 14:03:28;;;;;;;3.58;2.42;;;;;;;;;;4396466;32;67813;-59
2023/08/14 14:06:14;;;;;;;4.07;2.60;;;;;;;;;;4397908;32;59063;-58
2023/08/14 14:09:02;;;;;;;6.07;2.75;;;;;;;;;;4396569;32;69337;-58
2023/08/14 14:11:48;;;;;;;4.28;2.80;;;;;;;;;;4397684;32;69585;-58
2023/08/14 14:14:35;;;;;;;6.62;2.90;;;;;;;;;;4396738;32;67737;-57
2023/08/14 14:17:21;;;;;;;5.25;2.90;;;;;;;;;;4396819;32;59912;-58
2023/08/14 14:20:09;;;;;;;4.72;2.78;;;;;;;;;;4397687;32;69711;-58
2023/08/14 14:22:56;;;;;;;3.45;2.40;;;;;;;;;;4397870;32;69404;-57
2023/08/14 14:25:43;;;;;;;6.72;2.90;;;;;;;;;;4397601;32;67616;-57
2023/08/14 14:28:23;;;;;;;6.90;2.75;;;;;;;;;;3868619;36;43411;-57
2023/08/14 14:31:10;;;;;;;5.60;2.70;;;;;;;;;;4414449;32;58997;-57
2023/08/14 14:33:56;;;;;;;7.40;3.22;;;;;;;;;;4426301;32;70469;-57
2023/08/14 14:36:43;;;;;;;3.47;2.47;;;;;;;;;;4400541;32;67362;-58
2023/08/14 14:39:29;;;;;;;2.97;2.35;;;;;;;;;;4414173;32;66719;-57
2023/08/14 14:42:17;;;;;;;4.90;2.62;;;;;;;;;;4411255;32;71721;-57
2023/08/14 14:45:04;;;;;;;4.50;2.72;;;;;;;;;;4426123;32;66241;-58
2023/08/14 14:47:51;;;;;;;5.18;2.72;;;;;;;;;;4414475;32;66864;-58
2023/08/14 14:50:38;;;;;;;5.55;2.85;;;;;;;;;;4426669;32;60187;-58
2023/08/14 14:53:25;;;;;;;3.70;2.20;;;;;;;;;;4425848;32;70894;-57
2023/08/14 14:56:13;;;;;;;5.25;2.62;;;;;;;;;;4414172;32;66569;-57
2023/08/14 14:59:00;;;;;;;4.68;2.90;;;;;;;;;;4425920;32;67975;-57
2023/08/14 15:01:46;;;;;;;3.65;2.83;;;;;;;;;;4426124;32;60514;-57
2023/08/14 15:04:33;;;;;;;7.18;2.80;;;;;;;;;;4413795;32;69722;-57
2023/08/14 15:07:19;;;;;;;5.15;2.95;;;;;;;;;;4400073;32;70094;-57
2023/08/14 15:10:06;;;;;;;5.32;2.70;;;;;;;;;;4425692;32;68256;-57
2023/08/14 15:12:53;;;;;;;6.72;2.50;;;;;;;;;;4425783;32;71739;-57
2023/08/14 15:15:40;;;;;;;4.43;2.25;;;;;;;;;;4413983;32;65914;-57
2023/08/14 15:19:08;;;;;;;4.28;2.58;;;;;;;;;;3847420;37;43426;-58
2023/08/14 15:21:55;;;;;;;5.32;2.60;;;;;;;;;;4411140;32;59054;-57
2023/08/14 15:24:42;;;;;;;6.12;2.42;;;;;;;;;;4410618;32;69549;-58
2023/08/14 15:27:28;;;;;;;3.53;2.22;;;;;;;;;;4410737;32;69306;-57
2023/08/14 15:30:16;;;;;;;5.03;2.53;;;;;;;;;;4410870;32;66930;-58
2023/08/14 15:33:03;;;;;;;3.65;2.33;;;;;;;;;;4409256;32;71211;-58
2023/08/14 15:35:49;;;;;;;4.50;2.50;;;;;;;;;;4410901;32;65617;-56
2023/08/14 15:38:36;;;;;;;10.25;2.97;;;;;;;;;;4397944;32;67119;-58
2023/08/14 15:41:23;;;;;;;4.12;2.67;;;;;;;;;;4409144;32;60897;-58
2023/08/14 15:44:09;;;;;;;6.43;2.30;;;;;;;;;;4410522;32;71783;-56
2023/08/14 15:46:55;;;;;;;;;;;;;;;;;;4411069;32;64976;-58
2023/08/14 15:49:42;;;;;;;12.50;2.73;;;;;;;;;;4410648;32;66779;-58
2023/08/14 15:52:28;;;;;;;;;;;;;;;;;;4411299;32;60245;-58
2023/08/14 15:55:15;;;;;;;6.05;2.33;;;;;;;;;;4410692;32;70203;-58
2023/08/14 15:58:02;;;;;;;5.45;2.20;;;;;;;;;;4410405;32;69270;-57
2023/08/14 16:00:49;;;;;;;6.15;2.65;;;;;;;;;;4409302;32;68230;-58
2023/08/14 16:03:36;;;;;;;4.90;2.85;;;;;;;;;;4408542;32;72297;-58
2023/08/14 16:06:22;;;;;;;5.40;2.78;;;;;;;;;;4409228;32;65090;-57
2023/08/14 16:09:09;;;;;;;5.80;2.33;;;;;;;;;;4408487;32;69741;-58
2023/08/14 16:11:56;;;;;;;4.20;2.45;;;;;;;;;;4408565;32;67913;-57
2023/08/14 16:14:43;;;;;;;4.45;2.20;;;;;;;;;;4408306;32;73531;-58
2023/08/14 16:17:30;;;;;;;3.25;2.30;;;;;;;;;;4410001;32;64892;-57
2023/08/14 16:20:16;;;;;;;5.30;2.35;;;;;;;;;;4408900;32;67571;-57
2023/08/14 16:23:04;;;;;;;3.55;2.30;;;;;;;;;;4410292;32;59302;-58
2023/08/14 16:25:51;;;;;;;4.28;2.53;;;;;;;;;;4408171;32;70793;-58
2023/08/14 16:28:38;;;;;;;5.37;2.72;;;;;;;;;;4407456;32;69006;-58
2023/08/14 16:31:25;;;;;;;4.35;2.60;;;;;;;;;;4400060;32;67495;-58
2023/08/14 16:34:11;;;;;;;6.12;2.47;;;;;;;;;;4398898;32;60087;-57
2023/08/14 16:36:57;;;;;;;4.57;3.10;;;;;;;;;;4399589;32;70167;-58
2023/08/14 16:39:44;;;;;;;;;;;;;;;;;;4399939;32;69407;-57
2023/08/14 16:42:31;;;;;;;4.55;2.42;;;;;;;;;;4398725;32;66769;-57
2023/08/14 16:45:17;;;;;;;4.72;2.50;;;;;;;;;;4399604;32;72022;-57
2023/08/14 16:48:21;;;;;;;2.97;2.20;;;;;;;;;;3847431;37;43405;-58
2023/08/14 16:51:08;;;;;;;5.03;2.58;;;;;;;;;;4410945;32;59156;-58
2023/08/14 16:53:55;;;;;;;5.32;2.28;;;;;;;;;;4410705;32;70360;-59